createdAt,value
2022-12-25T00:00:05.445Z,48.55
2022-12-25T00:01:05.460Z,46.01
2022-12-25T00:02:05.404Z,46.06
2022-12-25T00:03:05.423Z,45.96
2022-12-25T00:04:05.510Z,45.67
2022-12-25T00:05:05.395Z,45.75
2022-12-25T00:06:05.359Z,46.31
2022-12-25T00:07:05.398Z,45.58
2022-12-25T00:08:05.347Z,45.72
2022-12-25T00:09:05.378Z,45.66
2022-12-25T00:10:05.357Z,45.55
2022-12-25T00:11:05.337Z,45.56
2022-12-25T00:12:05.344Z,46.07
2022-12-25T00:13:05.327Z,46.94
2022-12-25T00:14:05.305Z,46.35
2022-12-25T00:15:05.361Z,46.11
2022-12-25T00:16:05.383Z,46.32
2022-12-25T00:17:05.299Z,46.22
2022-12-25T00:18:05.284Z,48.81
2022-12-25T00:19:05.296Z,47.19
2022-12-25T00:20:05.332Z,46.00
2022-12-25T00:21:05.348Z,45.99
2022-12-25T00:22:05.267Z,46.76
2022-12-25T00:23:05.264Z,46.41
2022-12-25T00:24:05.302Z,50.21
2022-12-25T00:25:05.393Z,45.70
2022-12-25T00:26:05.276Z,45.65
2022-12-25T00:27:05.411Z,45.68
2022-12-25T00:28:05.249Z,45.64
2022-12-25T00:29:05.232Z,45.95
2022-12-25T00:30:05.223Z,46.50
2022-12-25T00:31:05.327Z,51.87
2022-12-25T00:32:05.254Z,45.78
2022-12-25T00:33:05.203Z,46.42
2022-12-25T00:34:05.209Z,46.27
2022-12-25T00:35:05.208Z,46.56
2022-12-25T00:36:05.235Z,48.01
2022-12-25T00:37:05.228Z,46.83
2022-12-25T00:38:05.182Z,46.81
2022-12-25T00:39:05.260Z,47.11
2022-12-25T00:40:05.169Z,49.33
2022-12-25T00:41:05.200Z,46.17
2022-12-25T00:42:05.224Z,45.82
2022-12-25T00:43:05.173Z,45.80
2022-12-25T00:44:05.205Z,48.65
2022-12-25T00:45:05.175Z,47.59
2022-12-25T00:46:05.214Z,47.81
2022-12-25T00:47:05.243Z,45.81
2022-12-25T00:48:05.183Z,45.83
2022-12-25T00:49:05.139Z,46.16
2022-12-25T00:50:05.150Z,45.93
2022-12-25T00:51:05.138Z,45.92
2022-12-25T00:52:05.132Z,46.86
2022-12-25T00:53:05.159Z,48.22
2022-12-25T00:54:05.152Z,47.65
2022-12-25T00:55:05.115Z,47.89
2022-12-25T00:56:05.122Z,47.44
2022-12-25T00:57:05.111Z,45.71
2022-12-25T00:58:05.209Z,45.74
2022-12-25T00:59:05.104Z,48.62
2022-12-25T01:00:05.100Z,46.20
2022-12-25T01:01:06.137Z,45.75
2022-12-25T01:02:05.217Z,45.94
2022-12-25T01:03:05.109Z,46.24
2022-12-25T01:04:05.065Z,46.42
2022-12-25T01:05:05.076Z,47.44
2022-12-25T01:06:05.083Z,47.35
2022-12-25T01:07:05.059Z,48.40
2022-12-25T01:08:05.091Z,46.71
2022-12-25T01:09:05.080Z,45.81
2022-12-25T01:10:05.083Z,45.73
2022-12-25T01:11:05.041Z,45.77
2022-12-25T01:12:05.040Z,48.93
2022-12-25T01:13:05.054Z,49.74
2022-12-25T01:14:05.048Z,46.83
2022-12-25T01:15:05.047Z,45.75
2022-12-25T01:16:05.091Z,45.74
2022-12-25T01:17:05.027Z,45.78
2022-12-25T01:18:07.871Z,45.71
2022-12-25T01:19:06.031Z,46.14
2022-12-25T01:20:05.022Z,46.05
2022-12-25T01:21:05.023Z,45.91
2022-12-25T01:22:04.983Z,47.07
2022-12-25T01:23:05.018Z,46.20
2022-12-25T01:24:04.982Z,47.95
2022-12-25T01:25:05.138Z,46.01
2022-12-25T01:26:04.974Z,45.84
2022-12-25T01:27:04.975Z,45.95
2022-12-25T01:28:04.971Z,46.72
2022-12-25T01:29:05.027Z,45.78
2022-12-25T01:30:05.028Z,45.68
2022-12-25T01:31:04.956Z,46.58
2022-12-25T01:32:05.021Z,47.86
2022-12-25T01:33:04.962Z,48.15
2022-12-25T01:34:04.956Z,45.74
2022-12-25T01:35:04.962Z,46.41
2022-12-25T01:36:04.965Z,45.80
2022-12-25T01:37:04.947Z,45.77
2022-12-25T01:38:04.959Z,45.82
2022-12-25T01:39:04.943Z,45.77
2022-12-25T01:40:04.935Z,46.85
2022-12-25T01:41:04.941Z,47.65
2022-12-25T01:42:04.895Z,46.28
2022-12-25T01:43:04.946Z,48.83
2022-12-25T01:44:04.910Z,46.83
2022-12-25T01:45:04.901Z,49.90
2022-12-25T01:46:05.007Z,45.86
2022-12-25T01:47:04.911Z,45.84
2022-12-25T01:48:04.926Z,45.87
2022-12-25T01:49:04.870Z,45.99
2022-12-25T01:50:04.885Z,45.88
2022-12-25T01:51:04.863Z,45.84
2022-12-25T01:52:04.919Z,45.88
2022-12-25T01:53:04.898Z,45.73
2022-12-25T01:54:04.887Z,46.40
2022-12-25T01:55:04.907Z,47.43
2022-12-25T01:56:04.857Z,48.04
2022-12-25T01:57:04.861Z,45.91
2022-12-25T01:58:04.841Z,45.91
2022-12-25T01:59:04.944Z,45.95
2022-12-25T02:00:04.855Z,48.52
2022-12-25T02:01:04.839Z,48.79
2022-12-25T02:02:04.942Z,45.90
2022-12-25T02:03:04.856Z,45.84
2022-12-25T02:04:05.139Z,45.82
2022-12-25T02:05:04.885Z,45.73
2022-12-25T02:06:04.799Z,45.82
2022-12-25T02:07:04.807Z,45.83
2022-12-25T02:08:04.811Z,45.79
2022-12-25T02:09:04.793Z,45.79
2022-12-25T02:10:04.801Z,47.90
2022-12-25T02:11:04.771Z,48.36
2022-12-25T02:12:04.753Z,45.97
2022-12-25T02:13:04.829Z,45.95
2022-12-25T02:14:04.767Z,45.94
2022-12-25T02:15:06.127Z,45.89
2022-12-25T02:16:05.831Z,45.88
2022-12-25T02:17:04.842Z,45.86
2022-12-25T02:18:04.750Z,45.91
2022-12-25T02:19:04.761Z,46.18
2022-12-25T02:20:05.609Z,45.96
2022-12-25T02:21:04.731Z,46.61
2022-12-25T02:22:04.732Z,46.12
2022-12-25T02:23:05.630Z,45.79
2022-12-25T02:24:04.796Z,45.89
2022-12-25T02:25:04.825Z,45.93
2022-12-25T02:26:04.721Z,45.97
2022-12-25T02:27:04.709Z,48.33
2022-12-25T02:28:04.729Z,48.90
2022-12-25T02:29:04.701Z,45.84
2022-12-25T02:30:04.766Z,45.86
2022-12-25T02:31:04.691Z,45.75
2022-12-25T02:32:04.756Z,45.87
2022-12-25T02:33:04.690Z,46.61
2022-12-25T02:34:04.683Z,46.30
2022-12-25T02:35:04.671Z,46.44
2022-12-25T02:36:04.878Z,47.28
2022-12-25T02:37:04.696Z,46.01
2022-12-25T02:38:04.660Z,45.81
2022-12-25T02:39:04.674Z,47.01
2022-12-25T02:40:04.678Z,45.97
2022-12-25T02:41:04.691Z,45.93
2022-12-25T02:42:04.679Z,45.88
2022-12-25T02:43:04.654Z,45.95
2022-12-25T02:44:04.634Z,45.83
2022-12-25T02:45:04.613Z,47.04
2022-12-25T02:46:04.639Z,46.04
2022-12-25T02:47:04.617Z,45.90
2022-12-25T02:48:04.629Z,45.95
2022-12-25T02:49:04.613Z,45.93
2022-12-25T02:50:04.590Z,46.01
2022-12-25T02:51:04.612Z,45.95
2022-12-25T02:52:04.593Z,45.96
2022-12-25T02:53:04.615Z,45.91
2022-12-25T02:54:04.594Z,45.79
2022-12-25T02:55:04.562Z,45.81
2022-12-25T02:56:04.566Z,45.76
2022-12-25T02:57:04.690Z,46.23
2022-12-25T02:58:04.666Z,46.25
2022-12-25T02:59:04.582Z,45.98
2022-12-25T03:00:04.559Z,45.94
2022-12-25T03:01:04.637Z,46.02
2022-12-25T03:02:04.676Z,45.99
2022-12-25T03:03:04.577Z,47.76
2022-12-25T03:04:04.539Z,46.01
2022-12-25T03:05:04.529Z,45.93
2022-12-25T03:06:04.555Z,45.97
2022-12-25T03:07:04.539Z,46.01
2022-12-25T03:08:04.610Z,45.87
2022-12-25T03:09:04.524Z,45.88
2022-12-25T03:10:04.517Z,45.90
2022-12-25T03:11:04.524Z,45.90
2022-12-25T03:12:04.485Z,45.93
2022-12-25T03:13:04.502Z,45.88
2022-12-25T03:14:04.475Z,47.64
2022-12-25T03:15:04.478Z,48.09
2022-12-25T03:16:04.502Z,45.99
2022-12-25T03:17:04.510Z,47.65
2022-12-25T03:18:04.473Z,46.23
2022-12-25T03:19:04.505Z,45.91
2022-12-25T03:20:04.471Z,45.74
2022-12-25T03:21:04.473Z,45.76
2022-12-25T03:22:04.451Z,45.85
2022-12-25T03:23:04.431Z,45.90
2022-12-25T03:24:04.484Z,45.88
2022-12-25T03:25:04.561Z,45.93
2022-12-25T03:26:04.440Z,46.02
2022-12-25T03:27:04.404Z,46.05
2022-12-25T03:28:04.430Z,46.41
2022-12-25T03:29:04.457Z,46.82
2022-12-25T03:30:04.427Z,46.12
2022-12-25T03:31:04.580Z,46.10
2022-12-25T03:32:04.434Z,46.75
2022-12-25T03:33:23.191Z,46.34
2022-12-25T03:34:06.461Z,46.01
2022-12-25T03:35:04.397Z,46.03
2022-12-25T03:36:04.373Z,46.03
2022-12-25T03:37:04.395Z,46.04
2022-12-25T03:38:04.410Z,46.05
2022-12-25T03:39:04.393Z,48.50
2022-12-25T03:40:04.385Z,46.64
2022-12-25T03:41:04.390Z,45.96
2022-12-25T03:42:04.372Z,48.87
2022-12-25T03:43:04.398Z,47.04
2022-12-25T03:44:04.393Z,46.03
2022-12-25T03:45:04.356Z,45.95
2022-12-25T03:46:04.375Z,45.93
2022-12-25T03:47:04.354Z,46.01
2022-12-25T03:48:04.375Z,45.94
2022-12-25T03:49:04.342Z,46.26
2022-12-25T03:50:04.336Z,48.98
2022-12-25T03:51:04.305Z,46.01
2022-12-25T03:52:04.344Z,46.04
2022-12-25T03:53:04.338Z,48.99
2022-12-25T03:54:04.309Z,47.35
2022-12-25T03:55:04.315Z,48.11
2022-12-25T03:56:04.304Z,46.48
2022-12-25T03:57:04.287Z,46.53
2022-12-25T03:58:04.331Z,46.57
2022-12-25T03:59:04.352Z,48.92
2022-12-25T04:00:04.302Z,46.50
2022-12-25T04:01:04.358Z,46.08
2022-12-25T04:02:04.413Z,46.11
2022-12-25T04:03:04.337Z,47.75
2022-12-25T04:04:05.272Z,49.33
2022-12-25T04:05:04.277Z,46.42
2022-12-25T04:06:04.314Z,45.98
2022-12-25T04:07:04.259Z,46.09
2022-12-25T04:08:04.262Z,47.29
2022-12-25T04:09:04.258Z,47.15
2022-12-25T04:10:04.217Z,46.21
2022-12-25T04:11:04.383Z,48.47
2022-12-25T04:12:04.237Z,46.53
2022-12-25T04:13:04.227Z,48.05
2022-12-25T04:14:04.267Z,46.62
2022-12-25T04:15:04.248Z,46.20
2022-12-25T04:16:04.301Z,47.14
2022-12-25T04:17:04.180Z,46.10
2022-12-25T04:18:04.204Z,46.10
2022-12-25T04:19:04.220Z,47.56
2022-12-25T04:20:04.219Z,45.99
2022-12-25T04:21:04.217Z,46.54
2022-12-25T04:22:04.169Z,46.49
2022-12-25T04:23:04.226Z,46.09
2022-12-25T04:24:04.168Z,46.25
2022-12-25T04:25:04.247Z,47.24
2022-12-25T04:26:04.189Z,46.65
2022-12-25T04:27:04.167Z,46.46
2022-12-25T04:28:05.162Z,47.89
2022-12-25T04:29:04.143Z,48.99
2022-12-25T04:30:04.191Z,49.53
2022-12-25T04:31:04.177Z,47.73
2022-12-25T04:32:04.170Z,48.33
2022-12-25T04:33:04.192Z,46.31
2022-12-25T04:34:04.142Z,46.33
2022-12-25T04:35:04.159Z,46.04
2022-12-25T04:36:04.142Z,46.11
2022-12-25T04:37:04.110Z,46.25
2022-12-25T04:38:04.126Z,48.09
2022-12-25T04:39:04.151Z,48.25
2022-12-25T04:40:04.109Z,46.30
2022-12-25T04:41:04.153Z,46.12
2022-12-25T04:42:04.100Z,46.29
2022-12-25T04:43:04.150Z,46.16
2022-12-25T04:44:04.100Z,46.14
2022-12-25T04:45:04.105Z,46.26
2022-12-25T04:46:04.106Z,49.29
2022-12-25T04:47:10.745Z,46.93
2022-12-25T04:48:06.060Z,48.12
2022-12-25T04:49:04.066Z,46.56
2022-12-25T04:50:04.075Z,45.98
2022-12-25T04:51:04.049Z,46.41
2022-12-25T04:52:04.065Z,45.95
2022-12-25T04:53:04.054Z,46.80
2022-12-25T04:54:04.039Z,47.42
2022-12-25T04:55:04.040Z,46.02
2022-12-25T04:56:04.045Z,46.27
2022-12-25T04:57:04.042Z,46.42
2022-12-25T04:58:04.026Z,46.56
2022-12-25T04:59:04.023Z,46.20
2022-12-25T05:00:04.025Z,46.25
2022-12-25T05:01:04.116Z,46.64
2022-12-25T05:02:04.099Z,46.13
2022-12-25T05:03:04.081Z,46.05
2022-12-25T05:04:04.003Z,47.65
2022-12-25T05:05:04.019Z,47.18
2022-12-25T05:06:04.048Z,46.13
2022-12-25T05:07:04.050Z,46.49
2022-12-25T05:08:04.000Z,47.24
2022-12-25T05:09:03.981Z,45.96
2022-12-25T05:10:04.003Z,46.46
2022-12-25T05:11:03.983Z,46.25
2022-12-25T05:12:04.006Z,46.25
2022-12-25T05:13:03.953Z,46.14
2022-12-25T05:14:03.963Z,46.15
2022-12-25T05:15:03.953Z,46.15
2022-12-25T05:16:04.033Z,46.23
2022-12-25T05:17:03.965Z,46.27
2022-12-25T05:18:03.978Z,46.16
2022-12-25T05:19:03.951Z,46.47
2022-12-25T05:20:03.971Z,47.78
2022-12-25T05:21:03.962Z,48.44
2022-12-25T05:22:03.918Z,48.03
2022-12-25T05:23:03.933Z,47.19
2022-12-25T05:24:03.902Z,46.92
2022-12-25T05:25:03.952Z,46.51
2022-12-25T05:26:03.886Z,47.13
2022-12-25T05:27:03.910Z,46.97
2022-12-25T05:28:03.886Z,46.39
2022-12-25T05:29:03.915Z,47.21
2022-12-25T05:30:03.899Z,47.00
2022-12-25T05:31:03.980Z,46.53
2022-12-25T05:32:04.884Z,46.29
2022-12-25T05:33:03.949Z,46.48
2022-12-25T05:34:03.856Z,46.25
2022-12-25T05:35:03.911Z,46.33
2022-12-25T05:36:03.854Z,46.20
2022-12-25T05:37:03.868Z,46.50
2022-12-25T05:38:03.843Z,48.51
2022-12-25T05:39:03.835Z,47.97
2022-12-25T05:40:03.809Z,46.30
2022-12-25T05:41:03.829Z,46.75
2022-12-25T05:42:03.834Z,46.19
2022-12-25T05:43:03.823Z,48.25
2022-12-25T05:44:03.860Z,47.93
2022-12-25T05:45:03.818Z,46.36
2022-12-25T05:46:03.830Z,46.23
2022-12-25T05:47:03.883Z,46.91
2022-12-25T05:48:03.833Z,48.43
2022-12-25T05:49:03.815Z,46.11
2022-12-25T05:50:03.781Z,45.96
2022-12-25T05:51:03.786Z,45.88
2022-12-25T05:52:03.806Z,45.90
2022-12-25T05:53:08.095Z,46.18
2022-12-25T05:54:04.795Z,46.01
2022-12-25T05:55:03.746Z,46.77
2022-12-25T05:56:03.783Z,46.30
2022-12-25T05:57:03.763Z,48.46
2022-12-25T05:58:03.784Z,46.81
2022-12-25T05:59:03.772Z,46.84
2022-12-25T06:00:03.730Z,46.67
2022-12-25T06:01:03.738Z,48.15
2022-12-25T06:02:03.949Z,47.10
2022-12-25T06:03:03.851Z,46.10
2022-12-25T06:04:10.180Z,46.29
2022-12-25T06:05:05.778Z,46.10
2022-12-25T06:06:03.701Z,46.87
2022-12-25T06:07:03.729Z,47.44
2022-12-25T06:08:03.721Z,46.20
2022-12-25T06:09:03.729Z,46.25
2022-12-25T06:10:03.739Z,48.15
2022-12-25T06:11:03.694Z,46.35
2022-12-25T06:12:03.694Z,47.64
2022-12-25T06:13:03.688Z,47.07
2022-12-25T06:14:03.672Z,46.52
2022-12-25T06:15:03.680Z,46.47
2022-12-25T06:16:03.686Z,47.58
2022-12-25T06:17:03.735Z,47.69
2022-12-25T06:18:03.645Z,48.37
2022-12-25T06:19:03.656Z,46.84
2022-12-25T06:20:03.686Z,46.06
2022-12-25T06:21:03.658Z,46.64
2022-12-25T06:22:03.628Z,46.71
2022-12-25T06:23:03.625Z,46.81
2022-12-25T06:24:03.683Z,47.43
2022-12-25T06:25:03.646Z,46.41
2022-12-25T06:26:03.651Z,47.15
2022-12-25T06:27:03.699Z,46.19
2022-12-25T06:28:03.672Z,46.00
2022-12-25T06:29:03.616Z,45.93
2022-12-25T06:30:03.636Z,46.02
2022-12-25T06:31:03.732Z,48.39
2022-12-25T06:32:03.680Z,48.93
2022-12-25T06:33:03.575Z,50.43
2022-12-25T06:34:03.573Z,47.95
2022-12-25T06:35:03.593Z,46.33
2022-12-25T06:36:03.621Z,46.22
2022-12-25T06:37:03.569Z,46.23
2022-12-25T06:38:03.573Z,47.22
2022-12-25T06:39:03.584Z,47.98
2022-12-25T06:40:03.541Z,47.06
2022-12-25T06:41:03.565Z,47.00
2022-12-25T06:42:03.549Z,46.51
2022-12-25T06:43:03.586Z,46.30
2022-12-25T06:44:03.548Z,46.32
2022-12-25T06:45:03.535Z,46.50
2022-12-25T06:46:03.597Z,46.31
2022-12-25T06:47:03.551Z,46.20
2022-12-25T06:48:03.537Z,46.20
2022-12-25T06:49:03.608Z,46.24
2022-12-25T06:50:03.514Z,46.34
2022-12-25T06:51:03.549Z,46.43
2022-12-25T06:52:03.487Z,46.87
2022-12-25T06:53:03.525Z,46.29
2022-12-25T06:54:03.483Z,46.78
2022-12-25T06:55:03.507Z,47.12
2022-12-25T06:56:03.484Z,46.33
2022-12-25T06:57:03.500Z,46.26
2022-12-25T06:58:03.481Z,46.28
2022-12-25T06:59:03.543Z,46.24
2022-12-25T07:00:03.502Z,48.53
2022-12-25T07:01:03.462Z,48.90
2022-12-25T07:02:03.587Z,59.11
2022-12-25T07:03:03.522Z,59.12
2022-12-25T07:04:03.462Z,59.22
2022-12-25T07:05:03.441Z,49.71
2022-12-25T07:06:03.434Z,50.19
2022-12-25T07:07:08.746Z,48.84
2022-12-25T07:08:05.407Z,47.81
2022-12-25T07:09:03.403Z,48.53
2022-12-25T07:10:03.440Z,46.89
2022-12-25T07:11:03.423Z,47.06
2022-12-25T07:12:03.435Z,47.77
2022-12-25T07:13:04.408Z,47.65
2022-12-25T07:14:03.393Z,49.16
2022-12-25T07:15:03.404Z,49.23
2022-12-25T07:16:03.409Z,46.60
2022-12-25T07:17:03.432Z,47.83
2022-12-25T07:18:03.408Z,49.05
2022-12-25T07:19:03.377Z,49.91
2022-12-25T07:20:03.385Z,47.46
2022-12-25T07:21:03.356Z,47.50
2022-12-25T07:22:03.381Z,47.14
2022-12-25T07:23:03.342Z,48.17
2022-12-25T07:24:03.382Z,51.48
2022-12-25T07:25:03.378Z,48.31
2022-12-25T07:26:03.336Z,51.17
2022-12-25T07:27:03.375Z,52.54
2022-12-25T07:28:03.321Z,49.34
2022-12-25T07:29:03.317Z,48.03
2022-12-25T07:30:03.343Z,48.31
2022-12-25T07:31:03.311Z,50.39
2022-12-25T07:32:03.385Z,51.66
2022-12-25T07:33:03.302Z,49.31
2022-12-25T07:34:03.324Z,47.13
2022-12-25T07:35:03.341Z,47.54
2022-12-25T07:36:03.311Z,46.48
2022-12-25T07:37:03.314Z,47.41
2022-12-25T07:38:04.283Z,50.72
2022-12-25T07:39:03.429Z,50.31
2022-12-25T07:40:03.520Z,51.03
2022-12-25T07:41:03.308Z,49.46
2022-12-25T07:42:03.271Z,51.69
2022-12-25T07:43:03.280Z,49.79
2022-12-25T07:44:03.268Z,52.07
2022-12-25T07:45:03.255Z,50.32
2022-12-25T07:46:03.263Z,52.85
2022-12-25T07:47:03.246Z,51.58
2022-12-25T07:48:05.764Z,50.74
2022-12-25T07:49:04.229Z,50.68
2022-12-25T07:50:03.251Z,51.06
2022-12-25T07:51:03.220Z,49.81
2022-12-25T07:52:03.256Z,50.10
2022-12-25T07:53:03.242Z,53.89
2022-12-25T07:54:03.201Z,53.29
2022-12-25T07:55:03.218Z,53.35
2022-12-25T07:56:03.232Z,49.32
2022-12-25T07:57:03.263Z,51.93
2022-12-25T07:58:03.206Z,49.19
2022-12-25T07:59:03.204Z,51.82
2022-12-25T08:00:03.168Z,53.49
2022-12-25T08:01:03.247Z,53.34
2022-12-25T08:02:03.460Z,51.21
2022-12-25T08:03:03.316Z,50.01
2022-12-25T08:04:03.300Z,47.71
2022-12-25T08:05:03.150Z,50.03
2022-12-25T08:06:03.150Z,49.38
2022-12-25T08:07:03.141Z,50.79
2022-12-25T08:08:03.131Z,52.43
2022-12-25T08:09:03.184Z,47.96
2022-12-25T08:10:03.139Z,53.09
2022-12-25T08:11:03.129Z,50.05
2022-12-25T08:12:03.121Z,51.38
2022-12-25T08:13:04.026Z,50.05
2022-12-25T08:14:03.138Z,51.47
2022-12-25T08:15:03.120Z,49.75
2022-12-25T08:16:03.153Z,52.16
2022-12-25T08:17:03.203Z,49.40
2022-12-25T08:18:03.146Z,50.98
2022-12-25T08:19:03.089Z,51.44
2022-12-25T08:20:03.127Z,48.96
2022-12-25T08:21:03.074Z,48.28
2022-12-25T08:22:03.070Z,47.80
2022-12-25T08:23:03.079Z,50.28
2022-12-25T08:24:03.174Z,51.80
2022-12-25T08:25:03.063Z,49.73
2022-12-25T08:26:05.412Z,48.52
2022-12-25T08:27:04.097Z,48.77
2022-12-25T08:28:03.057Z,52.53
2022-12-25T08:29:03.070Z,52.51
2022-12-25T08:30:03.112Z,50.84
2022-12-25T08:31:03.095Z,52.13
2022-12-25T08:32:03.080Z,48.71
2022-12-25T08:33:03.021Z,52.64
2022-12-25T08:34:03.066Z,50.80
2022-12-25T08:35:03.003Z,52.18
2022-12-25T08:36:03.058Z,53.06
2022-12-25T08:37:03.033Z,51.36
2022-12-25T08:38:03.014Z,49.61
2022-12-25T08:39:03.596Z,54.16
2022-12-25T08:40:04.024Z,50.41
2022-12-25T08:41:02.989Z,52.69
2022-12-25T08:42:02.978Z,52.50
2022-12-25T08:43:02.980Z,52.13
2022-12-25T08:44:03.033Z,52.89
2022-12-25T08:45:02.989Z,52.71
2022-12-25T08:46:03.000Z,50.59
2022-12-25T08:47:02.992Z,51.95
2022-12-25T08:48:02.984Z,51.61
2022-12-25T08:49:03.949Z,50.41
2022-12-25T08:50:03.006Z,49.80
2022-12-25T08:51:03.002Z,54.84
2022-12-25T08:52:02.973Z,50.85
2022-12-25T08:53:02.979Z,52.09
2022-12-25T08:54:02.940Z,52.41
2022-12-25T08:55:02.962Z,51.10
2022-12-25T08:56:02.921Z,56.00
2022-12-25T08:57:03.299Z,53.85
2022-12-25T08:58:03.905Z,53.01
2022-12-25T08:59:02.906Z,52.67
2022-12-25T09:00:02.906Z,52.55
2022-12-25T09:01:03.008Z,53.37
2022-12-25T09:02:02.964Z,49.12
2022-12-25T09:03:03.078Z,53.23
2022-12-25T09:04:02.878Z,52.34
2022-12-25T09:05:02.856Z,50.80
2022-12-25T09:06:02.881Z,54.22
2022-12-25T09:07:02.893Z,55.08
2022-12-25T09:08:02.893Z,54.64
2022-12-25T09:09:02.884Z,52.27
2022-12-25T09:10:02.856Z,50.74
2022-12-25T09:11:02.845Z,51.52
2022-12-25T09:12:02.901Z,51.31
2022-12-25T09:13:02.884Z,51.40
2022-12-25T09:14:02.857Z,49.97
2022-12-25T09:15:02.831Z,53.06
2022-12-25T09:16:02.865Z,53.42
2022-12-25T09:17:02.835Z,55.46
2022-12-25T09:18:02.826Z,52.52
2022-12-25T09:19:02.840Z,51.43
2022-12-25T09:20:02.806Z,51.62
2022-12-25T09:21:02.811Z,52.98
2022-12-25T09:22:02.806Z,52.40
2022-12-25T09:23:02.979Z,51.57
2022-12-25T09:24:02.853Z,53.36
2022-12-25T09:25:02.822Z,56.89
2022-12-25T09:26:02.782Z,54.89
2022-12-25T09:27:02.783Z,54.22
2022-12-25T09:28:02.770Z,54.71
2022-12-25T09:29:02.826Z,55.96
2022-12-25T09:30:02.787Z,54.37
2022-12-25T09:31:02.859Z,56.24
2022-12-25T09:32:02.743Z,52.65
2022-12-25T09:33:02.759Z,55.26
2022-12-25T09:34:02.737Z,52.09
2022-12-25T09:35:02.781Z,56.69
2022-12-25T09:36:02.735Z,56.65
2022-12-25T09:37:02.754Z,56.54
2022-12-25T09:38:02.813Z,55.36
2022-12-25T09:39:02.723Z,52.67
2022-12-25T09:40:02.703Z,53.28
2022-12-25T09:41:02.714Z,53.90
2022-12-25T09:42:02.724Z,52.46
2022-12-25T09:43:02.690Z,55.13
2022-12-25T09:44:02.754Z,53.18
2022-12-25T09:45:02.809Z,56.18
2022-12-25T09:46:02.771Z,53.47
2022-12-25T09:47:02.673Z,52.72
2022-12-25T09:48:02.716Z,54.07
2022-12-25T09:49:02.671Z,54.86
2022-12-25T09:50:02.819Z,54.14
2022-12-25T09:51:02.694Z,55.51
2022-12-25T09:52:02.719Z,56.40
2022-12-25T09:53:02.689Z,56.57
2022-12-25T09:54:02.652Z,56.06
2022-12-25T09:55:02.683Z,52.33
2022-12-25T09:56:02.681Z,52.55
2022-12-25T09:57:02.631Z,55.59
2022-12-25T09:58:02.647Z,55.31
2022-12-25T09:59:02.639Z,52.64
2022-12-25T10:00:02.640Z,56.29
2022-12-25T10:01:02.641Z,56.80
2022-12-25T10:02:02.813Z,61.12
2022-12-25T10:03:02.827Z,61.06
2022-12-25T10:04:02.600Z,60.49
2022-12-25T10:05:02.740Z,55.31
2022-12-25T10:06:02.595Z,51.46
2022-12-25T10:07:02.607Z,55.47
2022-12-25T10:08:02.594Z,53.09
2022-12-25T10:09:02.648Z,54.21
2022-12-25T10:10:02.580Z,55.74
2022-12-25T10:11:02.568Z,55.69
2022-12-25T10:12:02.571Z,54.99
2022-12-25T10:13:02.561Z,51.93
2022-12-25T10:14:02.593Z,56.48
2022-12-25T10:15:02.568Z,55.62
2022-12-25T10:16:02.570Z,54.11
2022-12-25T10:17:02.560Z,52.20
2022-12-25T10:18:02.572Z,56.02
2022-12-25T10:19:02.558Z,56.50
2022-12-25T10:20:02.526Z,55.15
2022-12-25T10:21:04.694Z,54.12
2022-12-25T10:22:02.528Z,53.78
2022-12-25T10:23:02.510Z,53.05
2022-12-25T10:24:02.486Z,57.12
2022-12-25T10:25:02.560Z,57.57
2022-12-25T10:26:02.522Z,55.03
2022-12-25T10:27:02.485Z,54.51
2022-12-25T10:28:02.483Z,54.06
2022-12-25T10:29:02.476Z,53.92
2022-12-25T10:30:02.496Z,53.76
2022-12-25T10:31:02.528Z,54.61
2022-12-25T10:32:02.473Z,54.73
2022-12-25T10:33:02.460Z,57.14
2022-12-25T10:34:02.454Z,54.83
2022-12-25T10:35:02.436Z,56.48
2022-12-25T10:36:02.525Z,56.30
2022-12-25T10:37:02.451Z,56.97
2022-12-25T10:38:02.441Z,58.30
2022-12-25T10:39:02.510Z,58.26
2022-12-25T10:40:02.446Z,55.55
2022-12-25T10:41:02.441Z,55.22
2022-12-25T10:42:02.450Z,56.50
2022-12-25T10:43:02.406Z,55.56
2022-12-25T10:44:03.400Z,55.66
2022-12-25T10:45:02.412Z,56.20
2022-12-25T10:46:02.425Z,59.52
2022-12-25T10:47:02.412Z,58.90
2022-12-25T10:48:07.132Z,61.53
2022-12-25T10:49:04.470Z,62.08
2022-12-25T10:50:02.362Z,63.24
2022-12-25T10:51:03.371Z,62.01
2022-12-25T10:52:02.394Z,62.01
2022-12-25T10:53:02.468Z,62.16
2022-12-25T10:54:02.346Z,61.19
2022-12-25T10:55:02.337Z,59.67
2022-12-25T10:56:02.333Z,56.27
2022-12-25T10:57:02.380Z,55.55
2022-12-25T10:58:02.340Z,53.87
2022-12-25T10:59:02.315Z,54.29
2022-12-25T11:00:02.339Z,57.36
2022-12-25T11:01:02.371Z,55.70
2022-12-25T11:02:02.432Z,55.23
2022-12-25T11:03:02.548Z,56.15
2022-12-25T11:04:02.394Z,54.59
2022-12-25T11:05:02.305Z,57.18
2022-12-25T11:06:02.302Z,55.14
2022-12-25T11:07:02.282Z,56.20
2022-12-25T11:08:02.343Z,54.37
2022-12-25T11:09:02.284Z,55.68
2022-12-25T11:10:05.127Z,56.07
2022-12-25T11:11:03.257Z,56.97
2022-12-25T11:12:02.262Z,56.31
2022-12-25T11:13:02.419Z,52.09
2022-12-25T11:14:02.379Z,57.20
2022-12-25T11:15:02.235Z,54.91
2022-12-25T11:16:02.319Z,55.23
2022-12-25T11:17:02.231Z,52.38
2022-12-25T11:18:02.221Z,55.02
2022-12-25T11:19:02.251Z,55.51
2022-12-25T11:20:02.212Z,54.18
2022-12-25T11:21:02.260Z,55.31
2022-12-25T11:22:02.220Z,57.53
2022-12-25T11:23:02.212Z,57.34
2022-12-25T11:24:02.225Z,54.13
2022-12-25T11:25:02.190Z,56.62
2022-12-25T11:26:02.217Z,55.78
2022-12-25T11:27:02.192Z,56.67
2022-12-25T11:28:02.186Z,56.89
2022-12-25T11:29:02.223Z,54.88
2022-12-25T11:30:02.174Z,54.93
2022-12-25T11:31:02.241Z,55.43
2022-12-25T11:32:02.191Z,55.15
2022-12-25T11:33:02.157Z,53.80
2022-12-25T11:34:02.156Z,56.62
2022-12-25T11:35:02.120Z,55.50
2022-12-25T11:36:02.253Z,54.32
2022-12-25T11:37:02.188Z,53.27
2022-12-25T11:38:02.138Z,55.85
2022-12-25T11:39:02.132Z,54.68
2022-12-25T11:40:02.123Z,56.91
2022-12-25T11:41:02.111Z,54.27
2022-12-25T11:42:02.116Z,55.99
2022-12-25T11:43:07.637Z,55.07
2022-12-25T11:44:04.092Z,56.78
2022-12-25T11:45:02.090Z,53.79
2022-12-25T11:46:02.099Z,54.45
2022-12-25T11:47:02.126Z,55.25
2022-12-25T11:48:02.129Z,54.83
2022-12-25T11:49:02.118Z,54.63
2022-12-25T11:50:02.077Z,54.41
2022-12-25T11:51:02.061Z,52.40
2022-12-25T11:52:02.131Z,55.25
2022-12-25T11:53:02.028Z,55.37
2022-12-25T11:54:02.067Z,54.81
2022-12-25T11:55:02.063Z,55.61
2022-12-25T11:56:02.054Z,56.86
2022-12-25T11:57:02.024Z,58.07
2022-12-25T11:58:02.026Z,61.96
2022-12-25T11:59:02.053Z,62.64
2022-12-25T12:00:02.084Z,62.18
2022-12-25T12:01:02.007Z,62.63
2022-12-25T12:02:02.082Z,62.27
2022-12-25T12:03:02.166Z,61.69
2022-12-25T12:04:02.043Z,61.67
2022-12-25T12:05:03.014Z,61.73
2022-12-25T12:06:01.978Z,61.28
2022-12-25T12:07:01.968Z,60.66
2022-12-25T12:08:01.982Z,59.85
2022-12-25T12:09:01.957Z,59.41
2022-12-25T12:10:01.998Z,59.64
2022-12-25T12:11:01.954Z,61.15
2022-12-25T12:12:01.973Z,62.66
2022-12-25T12:13:01.943Z,61.62
2022-12-25T12:14:01.926Z,58.85
2022-12-25T12:15:01.966Z,55.07
2022-12-25T12:16:01.965Z,53.56
2022-12-25T12:17:01.939Z,54.69
2022-12-25T12:18:01.914Z,53.58
2022-12-25T12:19:01.938Z,53.99
2022-12-25T12:20:01.945Z,52.35
2022-12-25T12:21:01.962Z,53.68
2022-12-25T12:22:01.892Z,54.93
2022-12-25T12:23:01.884Z,54.97
2022-12-25T12:24:01.902Z,53.49
2022-12-25T12:25:02.891Z,56.74
2022-12-25T12:26:01.922Z,55.24
2022-12-25T12:27:01.864Z,52.87
2022-12-25T12:28:05.534Z,51.03
2022-12-25T12:29:02.889Z,53.26
2022-12-25T12:30:01.848Z,54.43
2022-12-25T12:31:01.846Z,54.06
2022-12-25T12:32:01.928Z,54.15
2022-12-25T12:33:01.883Z,53.25
2022-12-25T12:34:01.838Z,54.76
2022-12-25T12:35:01.846Z,54.14
2022-12-25T12:36:01.850Z,53.72
2022-12-25T12:37:01.857Z,53.85
2022-12-25T12:38:01.849Z,55.90
2022-12-25T12:39:01.844Z,55.67
2022-12-25T12:40:01.800Z,54.16
2022-12-25T12:41:01.801Z,56.96
2022-12-25T12:42:01.801Z,57.16
2022-12-25T12:43:01.787Z,55.88
2022-12-25T12:44:01.809Z,54.24
2022-12-25T12:45:01.775Z,54.02
2022-12-25T12:46:01.852Z,54.51
2022-12-25T12:47:01.787Z,56.20
2022-12-25T12:48:01.786Z,56.39
2022-12-25T12:49:01.777Z,56.10
2022-12-25T12:50:01.796Z,55.02
2022-12-25T12:51:01.801Z,53.01
2022-12-25T12:52:01.748Z,56.31